sensor_id;sensor_type;location;lat;lon;timestamp;pressure;altitude;pressure_sealevel;temperature;humidity
24013;BME280;12220;50.194;18.948;2024-03-07T00:01:08;102438.37;;;5.39;79.08
24013;BME280;12220;50.194;18.948;2024-03-07T00:03:09;102437.45;;;5.38;79.18
24013;BME280;12220;50.194;18.948;2024-03-07T00:05:11;102425.67;;;5.39;79.24
24013;BME280;12220;50.194;18.948;2024-03-07T00:07:19;102436.50;;;5.41;79.23
24013;BME280;12220;50.194;18.948;2024-03-07T00:09:21;102438.41;;;5.37;78.98
24013;BME280;12220;50.194;18.948;2024-03-07T00:11:25;102434.84;;;5.34;78.87
24013;BME280;12220;50.194;18.948;2024-03-07T00:13:26;102436.70;;;5.32;78.88
24013;BME280;12220;50.194;18.948;2024-03-07T00:15:34;102440.37;;;5.29;78.91
24013;BME280;12220;50.194;18.948;2024-03-07T00:17:36;102431.34;;;5.29;78.94
24013;BME280;12220;50.194;18.948;2024-03-07T00:19:38;102431.34;;;5.29;78.96
24013;BME280;12220;50.194;18.948;2024-03-07T00:21:40;102438.54;;;5.30;78.92
24013;BME280;12220;50.194;18.948;2024-03-07T00:23:49;102431.31;;;5.30;78.93
24013;BME280;12220;50.194;18.948;2024-03-07T00:25:51;102433.11;;;5.30;78.95
24013;BME280;12220;50.194;18.948;2024-03-07T00:27:52;102434.88;;;5.32;78.94
24013;BME280;12220;50.194;18.948;2024-03-07T00:29:54;102433.05;;;5.33;78.95
24013;BME280;12220;50.194;18.948;2024-03-07T00:32:04;102429.47;;;5.31;78.91
24013;BME280;12220;50.194;18.948;2024-03-07T00:34:08;102433.05;;;5.33;78.93
24013;BME280;12220;50.194;18.948;2024-03-07T00:36:11;102436.67;;;5.33;78.92
24013;BME280;12220;50.194;18.948;2024-03-07T00:38:13;102430.30;;;5.34;78.84
24013;BME280;12220;50.194;18.948;2024-03-07T00:40:20;102427.58;;;5.34;78.83
24013;BME280;12220;50.194;18.948;2024-03-07T00:42:21;102428.48;;;5.35;78.79
24013;BME280;12220;50.194;18.948;2024-03-07T00:44:23;102421.22;;;5.35;78.80
24013;BME280;12220;50.194;18.948;2024-03-07T00:46:24;102430.25;;;5.37;78.76
24013;BME280;12220;50.194;18.948;2024-03-07T00:48:35;102255.49;;;4.09;78.61
24013;BME280;12220;50.194;18.948;2024-03-07T00:50:36;102429.34;;;5.37;78.52
24013;BME280;12220;50.194;18.948;2024-03-07T00:52:38;102426.58;;;5.38;78.64
24013;BME280;12220;50.194;18.948;2024-03-07T00:54:39;102431.07;;;5.41;78.62
24013;BME280;12220;50.194;18.948;2024-03-07T00:56:50;102423.83;;;5.40;78.65
24013;BME280;12220;50.194;18.948;2024-03-07T00:58:51;102428.34;;;5.41;78.62
24013;BME280;12220;50.194;18.948;2024-03-07T01:00:52;102422.03;;;5.40;78.61
24013;BME280;12220;50.194;18.948;2024-03-07T01:02:54;102430.17;;;5.40;78.52
24013;BME280;12220;50.194;18.948;2024-03-07T01:05:05;102430.21;;;5.39;78.50
24013;BME280;12220;50.194;18.948;2024-03-07T01:07:11;102427.52;;;5.37;78.45
24013;BME280;12220;50.194;18.948;2024-03-07T01:09:13;102416.70;;;5.36;78.39
24013;BME280;12220;50.194;18.948;2024-03-07T01:11:19;102423.98;;;5.34;78.40
24013;BME280;12220;50.194;18.948;2024-03-07T01:13:21;102449.40;;;5.30;78.42
24013;BME280;12220;50.194;18.948;2024-03-07T01:15:24;102422.31;;;5.27;78.43
24013;BME280;12220;50.194;18.948;2024-03-07T01:17:26;102415.11;;;5.24;78.49
24013;BME280;12220;50.194;18.948;2024-03-07T01:19:27;102421.53;;;5.21;78.54
24013;BME280;12220;50.194;18.948;2024-03-07T01:21:36;102417.02;;;5.20;78.56
24013;BME280;12220;50.194;18.948;2024-03-07T01:23:37;102412.61;;;5.15;78.59
24013;BME280;12220;50.194;18.948;2024-03-07T01:25:38;102418.03;;;5.15;78.59
24013;BME280;12220;50.194;18.948;2024-03-07T01:27:41;102413.55;;;5.12;78.62
24013;BME280;12220;50.194;18.948;2024-03-07T01:29:51;102413.66;;;5.08;78.55
24013;BME280;12220;50.194;18.948;2024-03-07T01:31:54;102412.83;;;5.04;78.66
24013;BME280;12220;50.194;18.948;2024-03-07T01:33:55;102413.76;;;5.03;78.64
24013;BME280;12220;50.194;18.948;2024-03-07T01:35:56;102415.58;;;5.01;78.62
24013;BME280;12220;50.194;18.948;2024-03-07T01:38:06;102412.98;;;4.95;78.37
24013;BME280;12220;50.194;18.948;2024-03-07T01:40:12;102417.58;;;4.93;78.47
24013;BME280;12220;50.194;18.948;2024-03-07T01:42:15;102412.15;;;4.93;78.50
24013;BME280;12220;50.194;18.948;2024-03-07T01:44:16;102414.86;;;4.93;78.54
24013;BME280;12220;50.194;18.948;2024-03-07T01:46:21;102413.95;;;4.94;78.50
24013;BME280;12220;50.194;18.948;2024-03-07T01:48:27;102409.44;;;4.93;78.49
24013;BME280;12220;50.194;18.948;2024-03-07T01:50:29;102406.64;;;4.96;78.51
24013;BME280;12220;50.194;18.948;2024-03-07T01:52:31;102406.64;;;4.96;78.48
24013;BME280;12220;50.194;18.948;2024-03-07T01:54:37;102405.77;;;4.95;78.41
24013;BME280;12220;50.194;18.948;2024-03-07T01:56:39;102406.68;;;4.94;78.31
24013;BME280;12220;50.194;18.948;2024-03-07T01:58:42;102408.51;;;4.92;78.31
24013;BME280;12220;50.194;18.948;2024-03-07T02:00:43;102406.71;;;4.93;78.31
24013;BME280;12220;50.194;18.948;2024-03-07T02:02:53;102402.11;;;4.96;78.34
24013;BME280;12220;50.194;18.948;2024-03-07T02:04:54;102389.41;;;4.98;78.33
24013;BME280;12220;50.194;18.948;2024-03-07T02:06:56;102398.38;;;5.02;78.29
24013;BME280;12220;50.194;18.948;2024-03-07T02:08:59;102186.66;;;3.69;77.84
24013;BME280;12220;50.194;18.948;2024-03-07T02:11:08;102394.84;;;4.98;78.01
24013;BME280;12220;50.194;18.948;2024-03-07T02:13:10;102392.23;;;4.94;77.99
24013;BME280;12220;50.194;18.948;2024-03-07T02:15:12;102391.25;;;4.96;78.01
24013;BME280;12220;50.194;18.948;2024-03-07T02:17:14;102399.40;;;4.96;78.02
24013;BME280;12220;50.194;18.948;2024-03-07T02:19:23;102389.41;;;4.98;78.05
24013;BME280;12220;50.194;18.948;2024-03-07T02:21:24;102392.09;;;5.00;78.03
24013;BME280;12220;50.194;18.948;2024-03-07T02:23:26;102387.54;;;5.00;77.89
24013;BME280;12220;50.194;18.948;2024-03-07T02:25:28;102385.71;;;5.01;77.87
24013;BME280;12220;50.194;18.948;2024-03-07T02:27:38;102387.52;;;5.02;77.78
24013;BME280;12220;50.194;18.948;2024-03-07T02:29:40;102394.77;;;5.01;77.82
24013;BME280;12220;50.194;18.948;2024-03-07T02:31:42;102393.82;;;5.04;77.88
24013;BME280;12220;50.194;18.948;2024-03-07T02:33:43;102389.28;;;5.04;77.87
24013;BME280;12220;50.194;18.948;2024-03-07T02:35:53;102393.73;;;5.09;77.91
24013;BME280;12220;50.194;18.948;2024-03-07T02:37:54;102394.58;;;5.11;77.91
24013;BME280;12220;50.194;18.948;2024-03-07T02:39:56;102395.49;;;5.11;77.84
24013;BME280;12220;50.194;18.948;2024-03-07T02:41:57;102390.98;;;5.10;77.74
24013;BME280;12220;50.194;18.948;2024-03-07T02:44:08;102392.77;;;5.11;77.75
24013;BME280;12220;50.194;18.948;2024-03-07T02:46:10;102390.05;;;5.10;77.71
24013;BME280;12220;50.194;18.948;2024-03-07T02:48:12;102390.13;;;5.06;77.66
24013;BME280;12220;50.194;18.948;2024-03-07T02:50:14;102392.84;;;5.06;77.63
24013;BME280;12220;50.194;18.948;2024-03-07T02:52:23;102396.61;;;4.99;77.24
24013;BME280;12220;50.194;18.948;2024-03-07T02:54:24;102397.59;;;4.97;77.42
24013;BME280;12220;50.194;18.948;2024-03-07T02:56:26;102394.88;;;4.97;77.41
24013;BME280;12220;50.194;18.948;2024-03-07T02:58:27;102397.66;;;4.94;77.40
24013;BME280;12220;50.194;18.948;2024-03-07T03:00:38;102395.86;;;4.93;77.43
24013;BME280;12220;50.194;18.948;2024-03-07T03:02:40;102395.92;;;4.89;77.47
24013;BME280;12220;50.194;18.948;2024-03-07T03:04:42;102397.78;;;4.86;77.42
24013;BME280;12220;50.194;18.948;2024-03-07T03:06:44;102398.70;;;4.86;77.42
24013;BME280;12220;50.194;18.948;2024-03-07T03:08:53;102400.50;;;4.86;77.35
24013;BME280;12220;50.194;18.948;2024-03-07T03:10:58;102381.53;;;4.84;77.39
24013;BME280;12220;50.194;18.948;2024-03-07T03:13:00;102390.55;;;4.86;77.49
24013;BME280;12220;50.194;18.948;2024-03-07T03:15:03;102391.38;;;4.90;77.52
24013;BME280;12220;50.194;18.948;2024-03-07T03:17:09;102392.33;;;4.87;77.32
24013;BME280;12220;50.194;18.948;2024-03-07T03:19:12;102389.58;;;4.89;77.40
24013;BME280;12220;50.194;18.948;2024-03-07T03:21:13;102387.75;;;4.91;77.45
24013;BME280;12220;50.194;18.948;2024-03-07T03:23:16;102390.43;;;4.93;77.41
24013;BME280;12220;50.194;18.948;2024-03-07T03:25:24;102385.88;;;4.93;77.41
24013;BME280;12220;50.194;18.948;2024-03-07T03:27:26;102387.68;;;4.94;77.38
24013;BME280;12220;50.194;18.948;2024-03-07T03:29:28;102388.63;;;4.92;77.27
24013;BME280;12220;50.194;18.948;2024-03-07T03:31:29;102392.23;;;4.92;77.27
24013;BME280;12220;50.194;18.948;2024-03-07T03:33:39;102398.60;;;4.91;77.30
24013;BME280;12220;50.194;18.948;2024-03-07T03:35:42;102399.49;;;4.92;77.32
24013;BME280;12220;50.194;18.948;2024-03-07T03:37:43;102394.94;;;4.92;77.36
24013;BME280;12220;50.194;18.948;2024-03-07T03:39:45;102395.86;;;4.93;77.35
24013;BME280;12220;50.194;18.948;2024-03-07T03:41:54;102395.83;;;4.94;77.34
24013;BME280;12220;50.194;18.948;2024-03-07T03:43:56;102402.13;;;4.95;77.34
24013;BME280;12220;50.194;18.948;2024-03-07T03:45:59;102399.43;;;4.95;77.38
24013;BME280;12220;50.194;18.948;2024-03-07T03:48:03;102392.23;;;4.94;77.30
24013;BME280;12220;50.194;18.948;2024-03-07T03:50:11;102401.28;;;4.93;77.05
24013;BME280;12220;50.194;18.948;2024-03-07T03:52:13;102401.32;;;4.91;76.88
24013;BME280;12220;50.194;18.948;2024-03-07T03:54:14;102392.23;;;4.94;77.15
24013;BME280;12220;50.194;18.948;2024-03-07T03:56:16;102392.26;;;4.91;77.01
24013;BME280;12220;50.194;18.948;2024-03-07T03:58:25;102396.80;;;4.90;77.06
24013;BME280;12220;50.194;18.948;2024-03-07T04:00:26;102392.30;;;4.89;77.05
24013;BME280;12220;50.194;18.948;2024-03-07T04:02:28;102411.33;;;4.87;77.07
24013;BME280;12220;50.194;18.948;2024-03-07T04:04:29;102391.48;;;4.85;76.97
24013;BME280;12220;50.194;18.948;2024-03-07T04:06:40;102393.30;;;4.85;77.06
24013;BME280;12220;50.194;18.948;2024-03-07T04:08:42;102395.13;;;4.83;77.04
24013;BME280;12220;50.194;18.948;2024-03-07T04:10:43;102405.99;;;4.83;77.04
24013;BME280;12220;50.194;18.948;2024-03-07T04:12:45;102403.25;;;4.84;77.02
24013;BME280;12220;50.194;18.948;2024-03-07T04:14:55;102401.44;;;4.83;76.98
24013;BME280;12220;50.194;18.948;2024-03-07T04:16:57;102403.30;;;4.81;76.97
24013;BME280;12220;50.194;18.948;2024-03-07T04:18:58;102396.05;;;4.82;76.92
24013;BME280;12220;50.194;18.948;2024-03-07T04:21:00;102409.72;;;4.77;76.79
24013;BME280;12220;50.194;18.948;2024-03-07T04:23:11;102404.38;;;4.73;76.67
24013;BME280;12220;50.194;18.948;2024-03-07T04:25:12;102405.34;;;4.70;76.57
24013;BME280;12220;50.194;18.948;2024-03-07T04:27:13;102411.70;;;4.67;76.48
24013;BME280;12220;50.194;18.948;2024-03-07T04:29:15;102413.59;;;4.64;76.26
24013;BME280;12220;50.194;18.948;2024-03-07T04:31:26;102415.52;;;4.57;76.22
24013;BME280;12220;50.194;18.948;2024-03-07T04:33:27;102417.37;;;4.55;76.26
24013;BME280;12220;50.194;18.948;2024-03-07T04:35:29;102418.31;;;4.52;76.29
24013;BME280;12220;50.194;18.948;2024-03-07T04:37:32;102415.63;;;4.51;76.38
24013;BME280;12220;50.194;18.948;2024-03-07T04:39:41;102421.05;;;4.51;76.43
24013;BME280;12220;50.194;18.948;2024-03-07T04:41:42;102414.71;;;4.52;76.55
24013;BME280;12220;50.194;18.948;2024-03-07T04:43:44;102426.41;;;4.54;76.49
24013;BME280;12220;50.194;18.948;2024-03-07T04:45:45;102416.48;;;4.54;76.42
24013;BME280;12220;50.194;18.948;2024-03-07T04:47:56;102416.48;;;4.54;76.41
24013;BME280;12220;50.194;18.948;2024-03-07T04:49:57;102420.14;;;4.52;76.35
24013;BME280;12220;50.194;18.948;2024-03-07T04:52:00;102414.71;;;4.52;76.29
24013;BME280;12220;50.194;18.948;2024-03-07T04:54:02;102428.30;;;4.50;76.27
24013;BME280;12220;50.194;18.948;2024-03-07T04:56:12;102448.22;;;4.49;76.26
24013;BME280;12220;50.194;18.948;2024-03-07T04:58:15;102432.85;;;4.48;76.23
24013;BME280;12220;50.194;18.948;2024-03-07T05:00:16;102430.16;;;4.47;76.22
24013;BME280;12220;50.194;18.948;2024-03-07T05:02:20;102420.23;;;4.47;76.16
24013;BME280;12220;50.194;18.948;2024-03-07T05:04:27;102459.98;;;4.48;76.14
24013;BME280;12220;50.194;18.948;2024-03-07T05:06:31;102431.99;;;4.46;76.05
24013;BME280;12220;50.194;18.948;2024-03-07T05:08:34;102431.99;;;4.46;76.03
24013;BME280;12220;50.194;18.948;2024-03-07T05:10:36;102425.63;;;4.49;76.06
24013;BME280;12220;50.194;18.948;2024-03-07T05:12:42;102422.88;;;4.50;76.07
24013;BME280;12220;50.194;18.948;2024-03-07T05:14:43;102431.02;;;4.50;75.98
24013;BME280;12220;50.194;18.948;2024-03-07T05:16:46;102428.30;;;4.50;75.86
24013;BME280;12220;50.194;18.948;2024-03-07T05:18:55;102429.20;;;4.51;75.81
24013;BME280;12220;50.194;18.948;2024-03-07T05:21:00;102432.83;;;4.51;75.87
24013;BME280;12220;50.194;18.948;2024-03-07T05:23:19;102425.52;;;4.55;75.85
24013;BME280;12220;50.194;18.948;2024-03-07T05:25:20;102441.76;;;4.57;75.86
24013;BME280;12220;50.194;18.948;2024-03-07T05:27:24;102431.77;;;4.59;75.78
24013;BME280;12220;50.194;18.948;2024-03-07T05:29:26;102438.97;;;4.61;75.78
24013;BME280;12220;50.194;18.948;2024-03-07T05:31:35;102433.50;;;4.63;75.75
24013;BME280;12220;50.194;18.948;2024-03-07T05:33:36;102439.87;;;4.62;75.67
24013;BME280;12220;50.194;18.948;2024-03-07T05:35:39;102443.51;;;4.61;75.39
24013;BME280;12220;50.194;18.948;2024-03-07T05:37:44;102442.62;;;4.59;75.42
24013;BME280;12220;50.194;18.948;2024-03-07T05:39:49;102434.50;;;4.57;75.51
24013;BME280;12220;50.194;18.948;2024-03-07T05:41:51;102447.22;;;4.55;75.46
24013;BME280;12220;50.194;18.948;2024-03-07T05:43:52;102444.49;;;4.55;75.52
24013;BME280;12220;50.194;18.948;2024-03-07T05:45:53;102451.73;;;4.56;75.58
24013;BME280;12220;50.194;18.948;2024-03-07T05:48:13;102452.61;;;4.57;75.56
24013;BME280;12220;50.194;18.948;2024-03-07T05:50:25;102452.64;;;4.55;75.44
24013;BME280;12220;50.194;18.948;2024-03-07T05:52:27;102450.89;;;4.51;75.23
24013;BME280;12220;50.194;18.948;2024-03-07T05:54:28;102451.84;;;4.48;75.22
24013;BME280;12220;50.194;18.948;2024-03-07T05:56:33;102450.99;;;4.46;75.18
24013;BME280;12220;50.194;18.948;2024-03-07T05:58:40;102462.78;;;4.44;75.05
24013;BME280;12220;50.194;18.948;2024-03-07T06:00:44;102458.31;;;4.40;75.02
24013;BME280;12220;50.194;18.948;2024-03-07T06:02:50;102451.21;;;4.34;74.85
24013;BME280;12220;50.194;18.948;2024-03-07T06:04:51;102456.64;;;4.34;74.83
24013;BME280;12220;50.194;18.948;2024-03-07T06:06:55;102463.00;;;4.31;74.80
24013;BME280;12220;50.194;18.948;2024-03-07T06:08:57;102460.30;;;4.30;74.85
24013;BME280;12220;50.194;18.948;2024-03-07T06:10:59;102462.13;;;4.28;74.77
24013;BME280;12220;50.194;18.948;2024-03-07T06:13:00;102456.73;;;4.26;74.75
24013;BME280;12220;50.194;18.948;2024-03-07T06:15:11;102456.73;;;4.26;74.66
24013;BME280;12220;50.194;18.948;2024-03-07T06:17:13;102463.10;;;4.24;74.63
24013;BME280;12220;50.194;18.948;2024-03-07T06:19:14;102469.46;;;4.23;74.61
24013;BME280;12220;50.194;18.948;2024-03-07T06:21:16;102468.58;;;4.21;74.45
24013;BME280;12220;50.194;18.948;2024-03-07T06:23:27;102474.00;;;4.21;74.46
24013;BME280;12220;50.194;18.948;2024-03-07T06:25:31;102472.20;;;4.21;74.57
24013;BME280;12220;50.194;18.948;2024-03-07T06:27:45;102477.63;;;4.21;74.47
24013;BME280;12220;50.194;18.948;2024-03-07T06:29:50;102479.42;;;4.21;74.44
24013;BME280;12220;50.194;18.948;2024-03-07T06:31:51;102477.67;;;4.18;74.36
24013;BME280;12220;50.194;18.948;2024-03-07T06:33:55;102476.76;;;4.17;74.25
24013;BME280;12220;50.194;18.948;2024-03-07T06:35:57;102475.88;;;4.17;74.29
24013;BME280;12220;50.194;18.948;2024-03-07T06:37:59;102486.77;;;4.14;74.18
24013;BME280;12220;50.194;18.948;2024-03-07T06:40:08;102480.43;;;4.13;74.14
24013;BME280;12220;50.194;18.948;2024-03-07T06:42:11;102484.09;;;4.12;74.11
24013;BME280;12220;50.194;18.948;2024-03-07T06:44:16;102482.29;;;4.11;74.09
24013;BME280;12220;50.194;18.948;2024-03-07T06:46:23;102479.65;;;4.07;73.98
24013;BME280;12220;50.194;18.948;2024-03-07T06:48:25;102491.43;;;4.04;73.80
24013;BME280;12220;50.194;18.948;2024-03-07T06:50:27;102496.02;;;4.00;73.87
24013;BME280;12220;50.194;18.948;2024-03-07T06:52:29;102486.09;;;3.98;73.89
24013;BME280;12220;50.194;18.948;2024-03-07T06:54:31;102489.75;;;3.95;74.03
24013;BME280;12220;50.194;18.948;2024-03-07T06:56:37;102491.53;;;3.98;74.13
24013;BME280;12220;50.194;18.948;2024-03-07T06:58:44;102489.70;;;3.98;74.20
24013;BME280;12220;50.194;18.948;2024-03-07T07:00:46;102491.48;;;4.01;74.24
24013;BME280;12220;50.194;18.948;2024-03-07T07:02:48;102276.72;;;2.60;74.08
24013;BME280;12220;50.194;18.948;2024-03-07T07:04:53;102491.45;;;4.03;74.09
24013;BME280;12220;50.194;18.948;2024-03-07T07:06:54;102485.12;;;4.04;74.12
24013;BME280;12220;50.194;18.948;2024-03-07T07:08:56;102490.54;;;4.04;74.06
24013;BME280;12220;50.194;18.948;2024-03-07T07:11:03;102497.73;;;4.05;74.04
24013;BME280;12220;50.194;18.948;2024-03-07T07:13:09;102493.29;;;4.02;73.93
24013;BME280;12220;50.194;18.948;2024-03-07T07:15:12;102490.59;;;4.00;73.91
24013;BME280;12220;50.194;18.948;2024-03-07T07:17:13;102496.02;;;4.00;73.91
24013;BME280;12220;50.194;18.948;2024-03-07T07:19:14;102495.98;;;4.02;73.94
24013;BME280;12220;50.194;18.948;2024-03-07T07:21:24;102489.63;;;4.03;74.00
24013;BME280;12220;50.194;18.948;2024-03-07T07:23:25;102493.18;;;4.08;74.11
24013;BME280;12220;50.194;18.948;2024-03-07T07:25:27;102494.05;;;4.10;74.05
24013;BME280;12220;50.194;18.948;2024-03-07T07:27:28;102494.94;;;4.12;73.98
24013;BME280;12220;50.194;18.948;2024-03-07T07:29:39;102501.19;;;4.16;74.06
24013;BME280;12220;50.194;18.948;2024-03-07T07:31:40;102500.28;;;4.17;74.02
24013;BME280;12220;50.194;18.948;2024-03-07T07:33:41;102493.03;;;4.17;73.87
24013;BME280;12220;50.194;18.948;2024-03-07T07:35:44;102493.08;;;4.14;73.71
24013;BME280;12220;50.194;18.948;2024-03-07T07:37:54;102498.51;;;4.14;73.70
24013;BME280;12220;50.194;18.948;2024-03-07T07:39:56;102489.52;;;4.12;73.62
24013;BME280;12220;50.194;18.948;2024-03-07T07:41:58;102489.56;;;4.09;73.68
24013;BME280;12220;50.194;18.948;2024-03-07T07:44:00;102486.83;;;4.11;73.72
24013;BME280;12220;50.194;18.948;2024-03-07T07:46:09;102491.30;;;4.12;73.84
24013;BME280;12220;50.194;18.948;2024-03-07T07:48:10;102489.52;;;4.12;73.75
24013;BME280;12220;50.194;18.948;2024-03-07T07:50:14;102496.70;;;4.13;73.78
24013;BME280;12220;50.194;18.948;2024-03-07T07:52:20;102486.74;;;4.15;73.71
24013;BME280;12220;50.194;18.948;2024-03-07T07:54:24;102487.59;;;4.19;73.86
24013;BME280;12220;50.194;18.948;2024-03-07T07:56:25;102490.22;;;4.24;73.92
24013;BME280;12220;50.194;18.948;2024-03-07T07:58:29;102499.18;;;4.29;73.80
24013;BME280;12220;50.194;18.948;2024-03-07T08:00:30;102497.34;;;4.31;73.71
24013;BME280;12220;50.194;18.948;2024-03-07T08:02:39;102499.13;;;4.32;73.54
24013;BME280;12220;50.194;18.948;2024-03-07T08:04:41;102529.02;;;4.29;73.37
24013;BME280;12220;50.194;18.948;2024-03-07T08:06:43;102504.62;;;4.29;73.41
24013;BME280;12220;50.194;18.948;2024-03-07T08:08:44;102488.34;;;4.29;73.41
24013;BME280;12220;50.194;18.948;2024-03-07T08:10:54;102496.55;;;4.24;73.37
24013;BME280;12220;50.194;18.948;2024-03-07T08:12:56;102501.09;;;4.22;73.34
24013;BME280;12220;50.194;18.948;2024-03-07T08:14:58;102500.16;;;4.25;73.33
24013;BME280;12220;50.194;18.948;2024-03-07T08:16:59;102497.48;;;4.22;73.37
24013;BME280;12220;50.194;18.948;2024-03-07T08:19:09;102500.24;;;4.18;73.32
24013;BME280;12220;50.194;18.948;2024-03-07T08:21:12;102256.63;;;2.82;73.27
24013;BME280;12220;50.194;18.948;2024-03-07T08:23:14;102497.48;;;4.22;73.37
24013;BME280;12220;50.194;18.948;2024-03-07T08:25:16;102498.35;;;4.24;73.39
24013;BME280;12220;50.194;18.948;2024-03-07T08:27:24;102493.84;;;4.24;73.33
24013;BME280;12220;50.194;18.948;2024-03-07T08:29:26;102499.27;;;4.24;73.35
24013;BME280;12220;50.194;18.948;2024-03-07T08:31:28;102510.98;;;4.26;73.27
24013;BME280;12220;50.194;18.948;2024-03-07T08:33:29;102503.80;;;4.22;73.30
24013;BME280;12220;50.194;18.948;2024-03-07T08:35:39;102541.75;;;4.25;73.36
24013;BME280;12220;50.194;18.948;2024-03-07T08:37:45;102510.07;;;4.27;73.37
24013;BME280;12220;50.194;18.948;2024-03-07T08:39:50;102513.73;;;4.23;72.90
24013;BME280;12220;50.194;18.948;2024-03-07T08:41:53;102513.76;;;4.22;73.04
24013;BME280;12220;50.194;18.948;2024-03-07T08:43:55;102511.05;;;4.22;73.06
24013;BME280;12220;50.194;18.948;2024-03-07T08:45:57;102522.80;;;4.21;73.07
24013;BME280;12220;50.194;18.948;2024-03-07T08:47:59;102513.78;;;4.20;73.11
24013;BME280;12220;50.194;18.948;2024-03-07T08:50:01;102554.45;;;4.22;73.14
24013;BME280;12220;50.194;18.948;2024-03-07T08:52:10;102520.95;;;4.26;73.18
24013;BME280;12220;50.194;18.948;2024-03-07T08:54:13;102512.77;;;4.27;73.20
24013;BME280;12220;50.194;18.948;2024-03-07T08:56:14;102514.61;;;4.27;73.03
24013;BME280;12220;50.194;18.948;2024-03-07T08:58:16;102524.48;;;4.29;72.96
24013;BME280;12220;50.194;18.948;2024-03-07T09:00:25;102527.17;;;4.31;72.97
24013;BME280;12220;50.194;18.948;2024-03-07T09:02:27;102524.43;;;4.32;73.02
24013;BME280;12220;50.194;18.948;2024-03-07T09:04:28;102528.03;;;4.34;72.98
24013;BME280;12220;50.194;18.948;2024-03-07T09:06:30;102524.44;;;4.34;72.85
24013;BME280;12220;50.194;18.948;2024-03-07T09:08:40;102528.92;;;4.35;72.87
24013;BME280;12220;50.194;18.948;2024-03-07T09:10:41;102523.45;;;4.38;72.94
24013;BME280;12220;50.194;18.948;2024-03-07T09:12:43;102528.92;;;4.35;72.69
24013;BME280;12220;50.194;18.948;2024-03-07T09:14:45;102527.98;;;4.38;72.81
24013;BME280;12220;50.194;18.948;2024-03-07T09:16:55;102529.73;;;4.42;72.89
24013;BME280;12220;50.194;18.948;2024-03-07T09:18:57;102537.80;;;4.46;72.98
24013;BME280;12220;50.194;18.948;2024-03-07T09:20:59;102530.49;;;4.51;73.02
24013;BME280;12220;50.194;18.948;2024-03-07T09:23:01;102539.49;;;4.53;72.86
24013;BME280;12220;50.194;18.948;2024-03-07T09:25:10;102539.44;;;4.57;72.89
24013;BME280;12220;50.194;18.948;2024-03-07T09:27:13;102549.40;;;4.56;72.62
24013;BME280;12220;50.194;18.948;2024-03-07T09:29:19;102542.15;;;4.57;72.60
24013;BME280;12220;50.194;18.948;2024-03-07T09:31:23;102543.92;;;4.59;72.74
24013;BME280;12220;50.194;18.948;2024-03-07T09:33:25;102543.02;;;4.60;72.60
24013;BME280;12220;50.194;18.948;2024-03-07T09:35:27;102541.27;;;4.56;72.48
24013;BME280;12220;50.194;18.948;2024-03-07T09:37:28;102549.40;;;4.56;72.44
24013;BME280;12220;50.194;18.948;2024-03-07T09:39:31;102548.48;;;4.56;72.44
24013;BME280;12220;50.194;18.948;2024-03-07T09:41:41;102552.15;;;4.54;72.46
24013;BME280;12220;50.194;18.948;2024-03-07T09:43:47;102554.86;;;4.54;72.44
24013;BME280;12220;50.194;18.948;2024-03-07T09:45:49;102553.95;;;4.54;72.38
24013;BME280;12220;50.194;18.948;2024-03-07T09:47:52;102549.48;;;4.50;72.23
24013;BME280;12220;50.194;18.948;2024-03-07T09:49:56;102549.48;;;4.50;72.25
24013;BME280;12220;50.194;18.948;2024-03-07T09:52:00;102556.73;;;4.49;72.24
24013;BME280;12220;50.194;18.948;2024-03-07T09:54:02;102552.25;;;4.47;72.13
24013;BME280;12220;50.194;18.948;2024-03-07T09:56:04;102558.55;;;4.49;72.19
24013;BME280;12220;50.194;18.948;2024-03-07T09:58:12;102556.73;;;4.49;72.21
24013;BME280;12220;50.194;18.948;2024-03-07T10:00:19;102554.91;;;4.51;72.22
24013;BME280;12220;50.194;18.948;2024-03-07T10:02:27;102558.48;;;4.53;72.21
24013;BME280;12220;50.194;18.948;2024-03-07T10:06:46;102555.73;;;4.55;72.28
24013;BME280;12220;50.194;18.948;2024-03-07T10:08:53;102562.00;;;4.59;72.29
24013;BME280;12220;50.194;18.948;2024-03-07T10:10:56;102557.53;;;4.58;72.19
24013;BME280;12220;50.194;18.948;2024-03-07T10:12:57;102554.81;;;4.58;72.18
24013;BME280;12220;50.194;18.948;2024-03-07T10:15:02;102547.55;;;4.58;72.16
24013;BME280;12220;50.194;18.948;2024-03-07T10:17:08;102546.61;;;4.61;72.26
24013;BME280;12220;50.194;18.948;2024-03-07T10:19:10;102544.77;;;4.63;72.30
24013;BME280;12220;50.194;18.948;2024-03-07T10:21:14;102552.82;;;4.67;72.35
24013;BME280;12220;50.194;18.948;2024-03-07T10:23:19;102560.94;;;4.70;72.34
24013;BME280;12220;50.194;18.948;2024-03-07T10:25:23;102551.87;;;4.70;71.96
24013;BME280;12220;50.194;18.948;2024-03-07T10:27:29;102555.48;;;4.72;72.05
24013;BME280;12220;50.194;18.948;2024-03-07T10:29:30;102552.80;;;4.70;71.58
24013;BME280;12220;50.194;18.948;2024-03-07T10:31:32;102558.23;;;4.70;71.76
24013;BME280;12220;50.194;18.948;2024-03-07T10:33:40;102560.00;;;4.71;71.86
24013;BME280;12220;50.194;18.948;2024-03-07T10:35:41;102561.85;;;4.69;71.78
24013;BME280;12220;50.194;18.948;2024-03-07T10:37:42;102554.59;;;4.70;71.89
24013;BME280;12220;50.194;18.948;2024-03-07T10:39:49;102560.00;;;4.71;71.95
24013;BME280;12220;50.194;18.948;2024-03-07T10:41:54;102560.85;;;4.75;72.01
24013;BME280;12220;50.194;18.948;2024-03-07T10:43:59;102558.08;;;4.78;72.03
24013;BME280;12220;50.194;18.948;2024-03-07T10:46:04;102566.23;;;4.78;71.96
24013;BME280;12220;50.194;18.948;2024-03-07T10:48:11;102557.13;;;4.82;72.04
24013;BME280;12220;50.194;18.948;2024-03-07T10:50:20;102561.63;;;4.82;71.89